Time;durP1;ratioP1;P1;durP2;ratioP2;P2;SDS_P1;SDS_P2;PMS_P1;PMS_P2;Temp;Humidity;BMP_temperature;BMP_pressure;BME280_temperature;BME280_humidity;BME280_pressure;Samples;Min_cycle;Max_cycle;Signal;HPM_P1;HPM_P2
2021/05/31 06:51:45;;;;;;;6.80;4.90;;;;;;;14.68;60.42;101338.03;6064573;23;20015;-80
2021/05/31 06:54:11;;;;;;;7.22;5.10;;;;;;;14.69;60.49;101316.22;6040854;23;20596;-80
2021/05/31 06:56:36;;;;;;;8.18;4.95;;;;;;;14.89;60.50;101329.97;6069028;23;20014;-80
2021/05/31 06:59:02;;;;;;;9.05;5.18;;;;;;;14.85;59.44;101323.28;6071618;23;20025;-79
2021/05/31 07:01:27;;;;;;;6.30;5.18;;;;;;;14.94;59.02;101319.41;6043963;23;20858;-77
2021/05/31 07:03:52;;;;;;;5.60;4.57;;;;;;;15.01;58.10;101330.34;6040924;23;20034;-78
2021/05/31 07:06:18;;;;;;;7.68;4.85;;;;;;;15.00;57.53;101320.50;6043228;23;20337;-80
2021/05/31 07:08:43;;;;;;;7.65;4.93;;;;;;;15.01;56.70;101313.25;6044687;23;20143;-78
2021/05/31 07:11:12;;;;;;;7.43;4.97;;;;;;;14.99;56.28;101318.84;6044406;23;20002;-80
2021/05/31 07:13:38;;;;;;;6.90;4.97;;;;;;;15.02;56.64;101321.16;6072718;23;20063;-79
2021/05/31 07:16:04;;;;;;;7.85;5.10;;;;;;;14.98;56.65;101309.06;6043633;23;20010;-80
2021/05/31 07:18:29;;;;;;;6.38;4.60;;;;;;;15.01;56.59;101299.72;6039269;23;19999;-79
2021/05/31 07:20:55;;;;;;;6.63;4.97;;;;;;;15.11;56.53;101316.47;6073460;23;20045;-78
2021/05/31 07:23:21;;;;;;;7.28;5.30;;;;;;;15.24;56.98;101311.22;6052176;23;20014;-79
2021/05/31 07:25:46;;;;;;;8.27;5.47;;;;;;;15.36;56.51;101316.94;6049030;23;20022;-79
2021/05/31 07:28:13;;;;;;;7.85;5.63;;;;;;;15.44;56.12;101308.69;6075457;23;20007;-80
2021/05/31 07:30:39;;;;;;;8.07;5.93;;;;;;;15.55;55.59;101315.44;6051239;23;20062;-79
2021/05/31 07:33:09;;;;;;;7.35;5.80;;;;;;;15.58;54.45;101312.34;6048694;23;20006;-79
2021/05/31 07:35:34;;;;;;;10.38;5.55;;;;;;;15.67;54.09;101305.75;6073838;23;20006;-79
2021/05/31 07:38:00;;;;;;;6.72;4.40;;;;;;;15.73;53.89;101296.84;6048782;23;20027;-78
2021/05/31 07:40:25;;;;;;;7.95;4.95;;;;;;;15.75;53.26;101300.22;6049726;23;20031;-80
2021/05/31 07:42:52;;;;;;;9.70;5.68;;;;;;;15.89;53.16;101308.44;6074377;23;20031;-80
2021/05/31 07:45:18;;;;;;;7.70;5.43;;;;;;;15.98;53.35;101304.53;6076835;23;20078;-78
2021/05/31 07:47:44;;;;;;;8.02;5.68;;;;;;;16.05;52.33;101308.16;6051524;23;19999;-79
2021/05/31 07:50:10;;;;;;;6.68;5.00;;;;;;;16.18;51.84;101301.97;6048475;23;20038;-80
2021/05/31 07:52:36;;;;;;;9.57;5.53;;;;;;;16.25;51.58;101305.56;6046733;23;20041;-79
2021/05/31 07:55:03;;;;;;;9.25;5.63;;;;;;;16.17;51.24;101282.16;6047824;23;20007;-79
2021/05/31 07:57:29;;;;;;;8.98;5.53;;;;;;;16.33;51.39;101280.16;6047365;23;20097;-83
2021/05/31 07:59:55;;;;;;;7.05;5.15;;;;;;;16.36;51.17;101280.56;6045572;23;20007;-84
2021/05/31 09:27:49;;;;;;;9.13;6.00;;;;;;;19.46;45.48;101188.72;6067170;23;20027;-76
2021/05/31 09:30:17;;;;;;;8.60;6.82;;;;;;;19.44;45.93;101201.75;6037780;23;20011;-78
2021/05/31 09:32:51;;;;;;;12.18;7.35;;;;;;;19.34;46.56;101195.97;6062694;23;20003;-79
2021/05/31 09:35:21;;;;;;;9.82;7.05;;;;;;;19.19;46.90;101193.59;6038224;23;20006;-78
2021/05/31 09:37:48;;;;;;;9.20;6.47;;;;;;;18.99;47.58;101184.72;6062750;23;20003;-80
2021/05/31 09:40:32;;;;;;;9.38;6.32;;;;;;;18.79;47.29;101183.00;6037114;23;20543;-78
2021/05/31 09:42:59;;;;;;;13.30;8.02;;;;;;;18.69;47.93;101193.50;6038525;23;20013;-79
2021/05/31 09:45:25;;;;;;;9.05;6.32;;;;;;;18.65;47.71;101194.97;6014600;23;20018;-81
2021/05/31 09:47:51;;;;;;;8.65;6.22;;;;;;;18.76;47.94;101191.59;6036777;23;20059;-80
2021/05/31 09:50:35;;;;;;;14.73;6.43;;;;;;;18.94;48.35;101193.56;6038222;23;20006;-80
2021/05/31 09:53:12;;;;;;;8.70;5.53;;;;;;;19.04;46.84;101202.09;6036877;23;20021;-81
2021/05/31 09:55:45;;;;;;;10.73;6.93;;;;;;;18.95;46.04;101197.16;6035748;23;20082;-79
2021/05/31 09:58:16;;;;;;;8.23;5.70;;;;;;;18.86;45.81;101175.59;6036874;23;20018;-80
2021/05/31 10:00:48;;;;;;;10.55;6.57;;;;;;;18.86;46.93;101186.47;6037160;23;20098;-78
2021/05/31 10:06:06;;;;;;;9.98;5.72;;;;;;;18.71;46.02;101176.91;6039580;23;20010;-78
2021/05/31 10:11:00;;;;;;;7.72;5.57;;;;;;;18.64;45.79;101166.91;6036643;23;20010;-79
2021/05/31 10:13:27;;;;;;;7.93;5.68;;;;;;;18.60;45.69;101173.00;6012713;23;20017;-80
2021/05/31 10:15:53;;;;;;;9.27;6.60;;;;;;;18.80;45.35;101181.94;6038581;23;20011;-78
2021/05/31 10:18:19;;;;;;;9.95;5.50;;;;;;;19.16;46.02;101182.28;6036364;23;20018;-79
2021/05/31 10:20:46;;;;;;;8.65;6.18;;;;;;;19.36;44.39;101182.13;6038035;23;20114;-78
2021/05/31 10:23:13;;;;;;;11.00;6.88;;;;;;;19.46;43.70;101174.28;6037583;23;20051;-77
2021/05/31 10:25:44;;;;;;;12.10;6.88;;;;;;;19.64;42.55;101168.00;6037735;23;20089;-78
2021/05/31 10:28:19;;;;;;;12.63;7.50;;;;;;;19.70;42.57;101167.97;6037851;23;20377;-79
2021/05/31 10:31:02;;;;;;;13.95;7.82;;;;;;;19.94;43.14;101159.94;6037722;23;20094;-80
2021/05/31 10:33:28;;;;;;;9.80;6.78;;;;;;;19.94;43.43;101151.75;6013712;23;20006;-79
2021/05/31 10:35:58;;;;;;;7.88;5.95;;;;;;;20.02;42.40;101164.25;6038041;23;20007;-78
2021/05/31 10:38:27;;;;;;;14.57;7.82;;;;;;;20.04;42.60;101167.59;6036476;23;20450;-79
2021/05/31 10:40:54;;;;;;;12.93;7.70;;;;;;;20.19;42.39;101159.81;6037929;23;20081;-77
2021/05/31 10:43:22;;;;;;;9.73;6.32;;;;;;;20.21;42.34;101155.78;6013583;23;20006;-80
2021/05/31 10:45:49;;;;;;;8.05;6.22;;;;;;;20.19;42.10;101157.09;6036250;23;20034;-78
2021/05/31 10:48:19;;;;;;;10.45;6.43;;;;;;;20.34;42.61;101157.50;6037461;23;20069;-80
2021/05/31 10:50:50;;;;;;;9.43;6.97;;;;;;;20.60;42.11;101150.06;6014418;23;20066;-78
2021/05/31 10:55:49;;;;;;;14.00;5.90;;;;;;;20.91;42.00;101154.41;6062827;23;20018;-77
2021/05/31 10:58:16;;;;;;;11.88;6.30;;;;;;;20.61;41.88;101141.63;6062991;23;20014;-79
2021/05/31 11:00:55;;;;;;;12.95;7.47;;;;;;;20.20;42.38;101145.13;6037340;23;20007;-79
2021/05/31 11:03:21;;;;;;;7.93;5.80;;;;;;;20.34;42.96;101156.69;6037849;23;20011;-79
2021/05/31 11:05:46;;;;;;;8.85;4.88;;;;;;;20.68;41.82;101148.88;6037338;23;20058;-78
2021/05/31 11:08:23;;;;;;;9.60;6.28;;;;;;;20.78;41.15;101143.69;6035909;23;19998;-78
2021/05/31 11:10:54;;;;;;;19.08;10.35;;;;;;;20.66;41.78;101149.09;6014324;23;20038;-80
2021/05/31 11:13:19;;;;;;;17.17;10.85;;;;;;;20.31;40.80;101149.78;6037771;23;20182;-78
2021/05/31 11:15:45;;;;;;;15.15;8.88;;;;;;;20.10;41.08;101144.81;6037377;23;20048;-78
2021/05/31 11:18:22;;;;;;;12.40;8.38;;;;;;;20.11;40.72;101135.56;6062920;23;20002;-78
2021/05/31 11:20:48;;;;;;;11.65;7.10;;;;;;;20.28;41.10;101133.03;6038445;23;20009;-79
2021/05/31 11:23:13;;;;;;;11.75;7.57;;;;;;;20.57;41.29;101128.66;6037115;23;20006;-79
2021/05/31 11:25:38;;;;;;;15.50;7.53;;;;;;;20.77;40.62;101131.94;6038221;23;20010;-77
2021/05/31 11:28:05;;;;;;;11.73;6.13;;;;;;;20.95;39.50;101122.78;6062300;23;20010;-78
2021/05/31 11:30:34;;;;;;;11.27;8.88;;;;;;;21.35;40.12;101133.03;6062504;23;20078;-78
2021/05/31 11:33:03;;;;;;;10.15;6.68;;;;;;;21.79;39.06;101125.28;6038115;23;20007;-78
2021/05/31 11:35:30;;;;;;;9.10;6.50;;;;;;;21.79;38.25;101125.28;6062744;23;20002;-79
2021/05/31 11:37:56;;;;;;;10.75;7.10;;;;;;;21.90;38.81;101120.84;6036602;23;20007;-80
2021/05/31 11:40:25;;;;;;;9.20;5.50;;;;;;;22.20;39.17;101109.69;6036724;23;20016;-78
2021/05/31 11:42:56;;;;;;;9.10;5.60;;;;;;;22.47;38.97;101111.84;6012672;23;20018;-81
2021/05/31 11:45:23;;;;;;;6.80;5.53;;;;;;;22.55;38.07;101125.16;6062838;23;20003;-80
2021/05/31 11:48:00;;;;;;;10.20;6.15;;;;;;;22.18;37.58;101117.31;6037174;23;20003;-78
2021/05/31 11:50:27;;;;;;;5.38;4.78;;;;;;;22.11;37.93;101103.75;6037723;23;20017;-77
2021/05/31 11:52:53;;;;;;;7.63;5.43;;;;;;;21.89;38.50;101097.31;6063087;23;20058;-79
2021/05/31 11:55:26;;;;;;;8.70;5.95;;;;;;;21.84;39.21;101114.44;6037905;23;20003;-78
2021/05/31 11:57:52;;;;;;;7.97;4.80;;;;;;;21.68;39.50;101085.09;6038890;23;20010;-79
2021/05/31 12:00:23;;;;;;;6.97;4.50;;;;;;;21.63;39.27;101104.16;6015511;23;20077;-79
2021/05/31 12:02:49;;;;;;;12.88;5.75;;;;;;;21.72;38.32;101086.25;6039670;23;20071;-80
2021/05/31 12:05:25;;;;;;;7.88;5.55;;;;;;;22.01;37.76;101087.13;6065216;23;20007;-79
2021/05/31 12:07:51;;;;;;;6.82;5.28;;;;;;;22.22;37.92;101082.06;6038891;23;20018;-80
2021/05/31 12:10:16;;;;;;;8.63;4.90;;;;;;;22.44;37.73;101076.72;6065766;23;20200;-79
2021/05/31 12:12:42;;;;;;;5.60;4.95;;;;;;;22.76;37.63;101074.25;6040970;23;20003;-78
2021/05/31 12:15:12;;;;;;;7.70;5.05;;;;;;;22.89;36.54;101078.56;6064694;23;20010;-78
2021/05/31 12:17:39;;;;;;;8.93;5.18;;;;;;;22.79;35.91;101071.84;6039543;23;20014;-81
2021/05/31 12:20:05;;;;;;;7.65;5.20;;;;;;;22.78;37.20;101064.72;6038778;23;20920;-78
2021/05/31 12:22:31;;;;;;;7.43;5.28;;;;;;;23.07;37.10;101050.06;6013609;23;20006;-79
2021/05/31 12:24:59;;;;;;;7.68;5.57;;;;;;;23.30;35.70;101062.75;6036229;23;20007;-78
2021/05/31 12:27:29;;;;;;;6.07;4.10;;;;;;;22.68;36.04;101058.22;6036666;23;20010;-78
2021/05/31 12:29:56;;;;;;;6.47;4.30;;;;;;;22.45;37.34;101054.56;6035341;23;20378;-78
2021/05/31 12:32:26;;;;;;;5.65;4.05;;;;;;;22.02;36.52;101074.28;6036511;23;20007;-79
2021/05/31 12:34:52;;;;;;;8.60;5.28;;;;;;;21.83;36.44;101055.31;6062626;23;20010;-78
2021/05/31 12:37:21;;;;;;;8.35;4.47;;;;;;;21.88;37.13;101043.59;6036761;23;20014;-78
2021/05/31 12:39:49;;;;;;;8.15;5.28;;;;;;;21.72;36.77;101043.31;6035899;23;20030;-78
2021/05/31 12:42:24;;;;;;;8.43;4.75;;;;;;;21.27;37.13;101084.16;6064133;23;20002;-74
2021/05/31 12:44:50;;;;;;;7.47;4.93;;;;;;;20.95;37.60;101042.69;6044041;23;20011;-76
2021/05/31 12:47:17;;;;;;;5.60;4.50;;;;;;;20.79;38.25;101044.22;6044152;23;20063;-75
2021/05/31 12:49:52;;;;;;;8.15;4.80;;;;;;;20.69;39.07;101052.19;6018298;23;20548;-76
2021/05/31 12:53:05;;;;;;;9.70;5.72;;;;;;;20.72;38.76;101043.50;6043755;23;20094;-77
2021/05/31 12:55:31;;;;;;;8.63;5.18;;;;;;;20.67;39.39;101040.66;6066526;23;20011;-77
2021/05/31 12:57:57;;;;;;;10.63;6.03;;;;;;;20.74;39.48;101044.09;6037418;23;20018;-78
2021/05/31 13:00:24;;;;;;;10.45;6.32;;;;;;;20.77;39.22;101043.63;6035551;23;20006;-79
2021/05/31 13:02:54;;;;;;;7.43;5.13;;;;;;;20.74;38.36;101041.38;6012239;23;20011;-79
2021/05/31 13:05:22;;;;;;;10.60;6.38;;;;;;;20.76;38.62;101028.31;6038310;23;20196;-78
2021/05/31 13:07:49;;;;;;;10.35;7.90;;;;;;;20.75;39.50;101021.19;6013646;23;20085;-78
2021/05/31 13:10:23;;;;;;;7.28;5.35;;;;;;;20.85;39.38;101032.34;6039056;23;20006;-76
2021/05/31 13:12:53;;;;;;;9.57;5.90;;;;;;;20.72;38.56;101021.66;6038914;23;20030;-78
2021/05/31 13:15:22;;;;;;;7.05;5.90;;;;;;;20.77;38.62;101021.75;6038598;23;20009;-77
2021/05/31 13:17:50;;;;;;;9.82;5.68;;;;;;;20.98;38.04;100999.28;6037989;23;20102;-78
2021/05/31 13:20:17;;;;;;;10.50;6.47;;;;;;;21.23;38.93;100999.03;6063658;23;20058;-79
2021/05/31 13:22:54;;;;;;;8.85;6.38;;;;;;;21.70;38.61;100989.91;6038870;23;20003;-77
2021/05/31 13:25:19;;;;;;;8.32;6.05;;;;;;;21.95;38.38;100992.28;6038849;23;20344;-77
2021/05/31 13:27:45;;;;;;;10.98;5.32;;;;;;;22.00;37.14;100983.34;6063099;23;20437;-77
2021/05/31 13:30:16;;;;;;;10.90;6.50;;;;;;;21.97;37.37;100981.09;6038268;23;20014;-77
2021/05/31 13:32:55;;;;;;;11.48;6.70;;;;;;;21.96;37.50;100977.50;6037748;23;20079;-77
2021/05/31 14:13:10;;;;;;;9.05;6.78;;;;;;;21.10;37.70;100952.00;6061285;23;20114;-83
2021/05/31 14:15:37;;;;;;;11.50;7.53;;;;;;;20.61;39.44;100934.00;6060747;23;20002;-83
2021/05/31 14:18:04;;;;;;;10.38;5.82;;;;;;;20.67;39.41;100928.63;6011801;23;20007;-83
2021/05/31 14:20:30;;;;;;;7.85;5.80;;;;;;;20.59;38.69;100957.16;6036247;23;20027;-84
2021/05/31 14:22:59;;;;;;;9.25;6.05;;;;;;;20.47;38.49;100942.63;6012711;23;20038;-84
2021/05/31 14:25:24;;;;;;;7.30;6.18;;;;;;;20.32;38.67;100935.75;6012958;23;20579;-83
2021/05/31 14:27:53;;;;;;;8.63;5.97;;;;;;;20.23;38.80;100948.06;6011853;23;20018;-83
2021/05/31 14:30:19;;;;;;;11.27;7.82;;;;;;;20.13;39.80;100923.22;6037551;23;20015;-85
2021/05/31 14:32:44;;;;;;;8.65;6.25;;;;;;;20.44;39.79;100927.53;6016552;23;20006;-85
2021/05/31 14:35:10;;;;;;;9.77;6.97;;;;;;;20.89;39.70;100948.00;6020614;23;20010;-86
2021/05/31 14:37:37;;;;;;;8.52;5.93;;;;;;;21.25;39.04;100952.31;6016379;23;20520;-84
2021/05/31 14:40:04;;;;;;;8.77;5.75;;;;;;;21.16;38.46;100940.09;6038953;23;20003;-83
2021/05/31 14:42:30;;;;;;;7.68;6.20;;;;;;;21.03;38.72;100942.00;6013556;23;20014;-83
2021/05/31 14:44:55;;;;;;;8.38;5.60;;;;;;;20.81;37.60;100949.19;6014977;23;20003;-85
2021/05/31 14:47:21;;;;;;;11.65;5.70;;;;;;;20.65;38.08;100917.94;6041148;23;20007;-84
2021/05/31 14:49:48;;;;;;;11.77;5.40;;;;;;;20.59;38.61;100917.00;6042284;23;20011;-84
2021/05/31 14:52:14;;;;;;;8.82;6.20;;;;;;;20.43;39.27;100932.19;6040477;23;20310;-84
2021/05/31 14:54:41;;;;;;;9.15;5.28;;;;;;;20.83;37.95;100916.97;6015818;23;20140;-80
2021/05/31 14:57:07;;;;;;;7.53;5.60;;;;;;;21.34;37.40;100926.25;6040261;23;20007;-83
2021/05/31 14:59:32;;;;;;;7.43;5.38;;;;;;;21.62;36.40;100910.91;6039478;23;20306;-85
2021/05/31 15:01:58;;;;;;;8.05;5.55;;;;;;;21.29;37.11;100904.25;6013318;23;20094;-85
2021/05/31 15:04:23;;;;;;;8.88;5.70;;;;;;;21.46;37.62;100910.66;6013635;23;20033;-84
2021/05/31 15:06:49;;;;;;;7.75;5.18;;;;;;;21.59;37.69;100917.72;6040593;23;20021;-84
2021/05/31 15:09:14;;;;;;;8.38;4.90;;;;;;;21.50;36.76;100898.13;6035726;23;20069;-84
2021/05/31 15:11:40;;;;;;;8.73;5.50;;;;;;;21.56;37.63;100907.25;6036736;23;20487;-85
2021/05/31 15:14:05;;;;;;;8.38;5.50;;;;;;;21.50;37.29;100892.66;6012022;23;20017;-85
2021/05/31 15:16:31;;;;;;;7.85;5.15;;;;;;;21.61;37.00;100901.88;6012503;23;20018;-84
2021/05/31 15:19:01;;;;;;;10.10;5.38;;;;;;;21.45;37.12;100903.50;6035277;23;20018;-85
2021/05/31 15:21:31;;;;;;;9.60;5.18;;;;;;;21.07;37.40;100895.91;6012585;23;20009;-85
2021/05/31 15:23:56;;;;;;;7.22;4.65;;;;;;;21.19;38.11;100890.38;6012504;23;20007;-84
2021/05/31 15:26:22;;;;;;;7.07;3.97;;;;;;;21.16;37.49;100904.53;6036418;23;20017;-84
2021/05/31 15:28:49;;;;;;;6.82;4.45;;;;;;;20.66;37.02;100889.53;6032779;23;20011;-84
2021/05/31 15:31:15;;;;;;;6.65;4.13;;;;;;;20.30;36.82;100882.44;6035712;23;20607;-86
2021/05/31 15:33:41;;;;;;;9.32;5.72;;;;;;;20.00;37.04;100888.78;6011706;23;20011;-84
2021/05/31 15:36:07;;;;;;;4.95;4.00;;;;;;;19.72;37.94;100886.75;6011602;23;20771;-84
2021/05/31 15:38:33;;;;;;;6.38;4.45;;;;;;;19.44;38.74;100884.59;6035566;23;20010;-84
2021/05/31 15:40:59;;;;;;;6.85;4.25;;;;;;;19.31;39.49;100880.97;6011639;23;20003;-84
2021/05/31 15:43:25;;;;;;;5.45;3.92;;;;;;;19.23;40.11;100880.47;6011763;23;20011;-84
2021/05/31 15:45:54;;;;;;;5.90;4.55;;;;;;;19.03;40.33;100867.94;6036017;23;20521;-84
2021/05/31 15:48:20;;;;;;;6.60;4.38;;;;;;;19.00;40.46;100886.63;6011130;23;20003;-84
2021/05/31 15:50:46;;;;;;;6.63;4.45;;;;;;;18.69;39.81;100872.09;6036122;23;20537;-84
2021/05/31 15:53:11;;;;;;;7.45;3.63;;;;;;;18.63;39.90;100881.19;6011438;23;20070;-84
2021/05/31 15:55:42;;;;;;;9.77;5.28;;;;;;;18.45;40.62;100893.69;6035151;23;20007;-84
2021/05/31 15:58:11;;;;;;;8.40;4.65;;;;;;;18.32;41.02;100879.41;6012413;23;20011;-85
2021/05/31 16:00:37;;;;;;;6.32;3.70;;;;;;;18.18;41.22;100874.06;6035801;23;20038;-84
2021/05/31 16:03:03;;;;;;;6.43;4.35;;;;;;;18.05;41.24;100865.16;6011661;23;20086;-85
2021/05/31 16:05:28;;;;;;;10.80;5.30;;;;;;;17.99;41.74;100889.53;6012403;23;20504;-86
2021/05/31 16:07:54;;;;;;;8.50;4.93;;;;;;;17.93;42.28;100889.56;6034966;23;19998;-84
2021/05/31 16:10:19;;;;;;;10.68;5.90;;;;;;;17.85;42.83;100868.06;6011822;23;20093;-83
2021/05/31 16:12:52;;;;;;;6.25;4.78;;;;;;;17.88;43.30;100875.78;6060013;23;20011;-84
2021/05/31 16:15:17;;;;;;;10.98;6.60;;;;;;;17.88;43.52;100876.63;6036779;23;20002;-84
2021/05/31 16:17:43;;;;;;;6.65;4.25;;;;;;;17.79;43.93;100856.19;6010582;23;20018;-83
2021/05/31 16:20:08;;;;;;;7.30;5.10;;;;;;;17.91;43.63;100884.31;6011325;23;20011;-83
2021/05/31 16:22:34;;;;;;;8.30;5.00;;;;;;;17.88;43.55;100868.44;6035682;23;20470;-83
2021/05/31 16:27:34;;;;;;;7.38;5.55;;;;;;;17.87;43.79;100863.25;6036472;23;20090;-84
2021/05/31 16:29:59;;;;;;;8.10;5.78;;;;;;;17.88;43.94;100863.00;6011604;23;20527;-83
2021/05/31 16:32:24;;;;;;;11.75;5.68;;;;;;;17.91;44.43;100865.28;6011757;23;20018;-83
2021/05/31 16:34:50;;;;;;;8.15;5.00;;;;;;;17.89;44.22;100861.13;6035079;23;20101;-86
2021/05/31 16:37:15;;;;;;;12.15;5.32;;;;;;;17.77;44.05;100855.53;6012405;23;20082;-85
2021/05/31 16:39:41;;;;;;;7.47;5.35;;;;;;;17.71;44.63;100851.00;6011121;23;20467;-83
2021/05/31 16:42:06;;;;;;;9.18;5.95;;;;;;;17.76;44.82;100857.44;6036563;23;20003;-83
2021/05/31 16:44:32;;;;;;;8.48;4.68;;;;;;;17.77;45.07;100858.25;6013238;23;20014;-85
2021/05/31 16:46:57;;;;;;;10.40;5.57;;;;;;;17.71;45.64;100843.66;6037147;23;20010;-84
2021/05/31 16:49:23;;;;;;;8.82;5.20;;;;;;;17.86;46.26;100856.97;6035972;23;20062;-83
2021/05/31 16:51:48;;;;;;;8.65;4.95;;;;;;;17.80;45.94;100853.22;6012527;23;20011;-82
2021/05/31 16:54:14;;;;;;;9.68;5.20;;;;;;;17.72;45.64;100844.50;6036599;23;20007;-83
2021/05/31 16:56:39;;;;;;;7.40;4.63;;;;;;;17.61;46.12;100846.03;6037094;23;20003;-84
2021/05/31 16:59:05;;;;;;;7.30;4.57;;;;;;;17.55;45.47;100845.03;6013033;23;20074;-83
2021/05/31 17:01:30;;;;;;;7.38;4.55;;;;;;;17.41;45.40;100827.16;6012454;23;20021;-83
2021/05/31 17:04:01;;;;;;;7.45;5.35;;;;;;;17.44;45.35;100843.03;6013249;23;20038;-85
2021/05/31 17:06:31;;;;;;;9.38;5.30;;;;;;;17.44;45.47;100842.16;6013723;23;19999;-83
2021/05/31 17:08:57;;;;;;;10.02;5.75;;;;;;;17.35;45.66;100833.44;6036281;23;20006;-84
2021/05/31 17:19:38;;;;;;;12.52;6.32;;;;;;;17.51;47.57;100832.09;6039613;23;20110;-84
2021/05/31 17:22:04;;;;;;;14.82;8.93;;;;;;;17.57;47.60;100840.22;6037290;23;20003;-83
2021/05/31 17:24:30;;;;;;;8.52;6.47;;;;;;;17.53;47.82;100830.81;6012779;23;20039;-85
2021/05/31 17:26:56;;;;;;;14.80;7.78;;;;;;;17.40;48.15;100819.22;6036403;23;20318;-84
2021/05/31 17:29:22;;;;;;;9.68;7.15;;;;;;;17.31;48.52;100826.81;6011990;23;20011;-84
2021/05/31 17:34:16;;;;;;;16.77;8.95;;;;;;;17.19;49.69;100806.81;6063101;23;20007;-86
2021/05/31 17:36:43;;;;;;;11.18;6.53;;;;;;;17.24;50.07;100826.81;6013180;23;20042;-86
2021/05/31 17:39:09;;;;;;;16.45;8.73;;;;;;;17.19;50.31;100825.81;6013333;23;20006;-86
2021/05/31 17:41:37;;;;;;;12.88;7.95;;;;;;;17.19;50.77;100814.94;6012861;23;20517;-85
2021/05/31 17:44:03;;;;;;;14.07;8.40;;;;;;;17.13;51.24;100814.78;6036601;23;20010;-84
2021/05/31 17:46:29;;;;;;;9.85;7.47;;;;;;;17.05;51.76;100811.47;6036133;23;20398;-85
2021/05/31 17:48:54;;;;;;;10.23;7.60;;;;;;;16.91;51.69;100808.84;6036528;23;20030;-83
2021/05/31 17:51:19;;;;;;;13.45;7.85;;;;;;;16.83;52.54;100811.81;6013366;23;20045;-83
2021/05/31 17:53:45;;;;;;;12.82;7.25;;;;;;;16.60;52.63;100778.88;6012110;23;20452;-83
2021/05/31 17:56:10;;;;;;;11.63;8.25;;;;;;;16.70;53.51;100815.38;6012520;23;20626;-83
2021/05/31 17:58:38;;;;;;;12.40;7.75;;;;;;;16.62;53.57;100802.03;6011683;23;20127;-86
2021/05/31 18:01:04;;;;;;;15.20;8.40;;;;;;;16.55;54.37;100800.41;6012658;23;20018;-86
2021/05/31 18:03:39;;;;;;;13.70;8.80;;;;;;;16.48;54.54;100811.25;6061792;23;20003;-84
2021/05/31 18:06:05;;;;;;;21.25;11.60;;;;;;;16.22;55.12;100774.16;6014282;23;20038;-85
2021/05/31 18:08:30;;;;;;;19.08;10.98;;;;;;;16.25;56.23;100793.59;6035703;23;20023;-84
2021/05/31 18:10:55;;;;;;;15.18;9.98;;;;;;;16.18;56.81;100778.38;6035926;23;20090;-84
2021/05/31 18:13:29;;;;;;;17.50;8.63;;;;;;;16.16;56.43;100775.84;6013038;23;20101;-85
2021/05/31 18:15:58;;;;;;;;;;;;;;;16.27;56.32;100805.06;6011410;23;20017;-84
2021/05/31 18:18:23;;;;;;;12.88;8.70;;;;;;;16.05;56.44;100795.50;6036256;23;19929;-84
2021/05/31 18:20:48;;;;;;;14.23;7.95;;;;;;;16.14;56.28;100813.22;6012817;23;20015;-86
2021/05/31 18:23:15;;;;;;;15.48;10.73;;;;;;;16.20;56.20;100817.81;6012216;23;20013;-84
2021/05/31 18:25:43;;;;;;;14.60;9.80;;;;;;;16.22;56.14;100809.44;6012548;23;20017;-85
2021/05/31 18:28:09;;;;;;;14.27;8.95;;;;;;;16.18;56.12;100790.03;6011894;23;20018;-83
2021/05/31 18:30:34;;;;;;;12.68;8.07;;;;;;;16.24;55.78;100794.63;6015967;23;20014;-84
2021/05/31 18:33:00;;;;;;;13.52;8.27;;;;;;;16.27;55.70;100799.66;6014044;23;20409;-84
2021/05/31 18:35:38;;;;;;;14.15;9.10;;;;;;;16.28;55.59;100789.63;6013976;23;20006;-84
2021/05/31 18:38:04;;;;;;;15.57;8.70;;;;;;;16.23;55.80;100790.25;6014135;23;20089;-84
2021/05/31 18:40:30;;;;;;;14.75;8.63;;;;;;;16.16;55.70;100788.59;6014826;23;20002;-85
2021/05/31 18:42:57;;;;;;;15.10;8.77;;;;;;;16.13;56.14;100780.88;6013879;23;20066;-85
2021/05/31 18:45:22;;;;;;;12.45;8.68;;;;;;;16.14;56.55;100793.38;6037302;23;20118;-84
2021/05/31 18:47:47;;;;;;;14.65;8.00;;;;;;;16.09;56.47;100787.75;6038361;23;20078;-85
2021/05/31 18:50:13;;;;;;;15.95;9.45;;;;;;;16.01;56.67;100780.72;6016362;23;20017;-83
2021/05/31 18:52:39;;;;;;;14.63;9.27;;;;;;;16.05;57.03;100790.91;6014223;23;20093;-84
2021/05/31 18:55:06;;;;;;;17.92;10.57;;;;;;;15.99;57.52;100782.78;6036501;23;20009;-84
2021/05/31 18:57:32;;;;;;;18.05;11.45;;;;;;;15.98;57.76;100768.41;6014192;23;20484;-84
2021/05/31 18:59:57;;;;;;;15.73;10.07;;;;;;;15.99;58.02;100777.38;6012818;23;20023;-84
2021/05/31 19:02:23;;;;;;;17.60;11.10;;;;;;;15.95;58.20;100787.78;6012332;23;20010;-85
2021/05/31 19:04:48;;;;;;;17.42;10.32;;;;;;;15.82;58.50;100775.09;6012266;23;20402;-84
2021/05/31 19:07:14;;;;;;;17.80;9.95;;;;;;;15.75;58.57;100774.25;6013287;23;20086;-84
2021/05/31 19:09:39;;;;;;;15.65;9.88;;;;;;;15.71;58.92;100778.41;6009917;23;20086;-83
2021/05/31 19:12:06;;;;;;;25.27;11.70;;;;;;;15.71;58.90;100781.13;6010676;23;19998;-82
2021/05/31 19:14:31;;;;;;;17.98;10.75;;;;;;;15.67;59.25;100782.56;6034790;23;20046;-83
2021/05/31 19:16:57;;;;;;;17.65;10.10;;;;;;;15.64;59.38;100772.16;6009966;23;20014;-85
2021/05/31 19:19:22;;;;;;;25.67;11.27;;;;;;;15.48;59.31;100767.97;6013680;23;20011;-86
2021/05/31 19:21:48;;;;;;;20.40;12.27;;;;;;;15.36;59.58;100756.91;6013083;23;20018;-85
2021/05/31 19:24:14;;;;;;;13.48;8.88;;;;;;;15.37;59.64;100774.00;6037797;23;20006;-85
2021/05/31 19:26:40;;;;;;;19.38;11.20;;;;;;;15.30;60.20;100765.06;6033414;23;20006;-85
2021/05/31 19:29:06;;;;;;;19.15;10.75;;;;;;;15.37;59.86;100774.84;6012140;23;20033;-86
2021/05/31 19:31:32;;;;;;;16.90;9.90;;;;;;;15.34;59.95;100790.66;6019870;23;20460;-85
2021/05/31 19:33:57;;;;;;;13.95;9.23;;;;;;;15.31;60.41;100794.63;6019947;23;20007;-86
2021/05/31 19:36:24;;;;;;;18.35;10.27;;;;;;;15.33;60.49;100795.25;6019020;23;20013;-86
2021/05/31 19:38:50;;;;;;;13.88;8.18;;;;;;;15.30;60.62;100798.38;6041604;23;20003;-87
2021/05/31 19:41:15;;;;;;;18.98;9.93;;;;;;;15.24;61.06;100793.81;6019048;23;20078;-85
2021/05/31 19:43:41;;;;;;;15.38;9.50;;;;;;;15.19;61.12;100793.59;6021033;23;20352;-86
2021/05/31 19:46:06;;;;;;;23.90;12.75;;;;;;;15.25;61.33;100800.03;6045212;23;20045;-85
2021/05/31 19:48:32;;;;;;;16.80;9.63;;;;;;;15.14;61.19;100791.47;6044641;23;20018;-86
2021/05/31 19:53:47;;;;;;;22.38;11.90;;;;;;;15.09;61.57;100779.59;6049901;23;20111;-85
2021/05/31 20:01:52;;;;;;;18.25;10.27;;;;;;;15.04;62.09;100784.78;6048726;23;20013;-86
2021/05/31 20:04:17;;;;;;;14.48;9.45;;;;;;;15.00;62.36;100787.06;6016866;23;20042;-86
2021/05/31 20:06:45;;;;;;;19.50;11.27;;;;;;;14.95;62.63;100794.94;6040915;23;20006;-85
2021/05/31 20:09:10;;;;;;;16.33;10.85;;;;;;;14.88;63.04;100789.53;6017920;23;20035;-86
2021/05/31 20:11:36;;;;;;;17.13;10.52;;;;;;;14.85;63.18;100806.19;6019479;23;20504;-85
2021/05/31 20:14:02;;;;;;;21.23;11.23;;;;;;;14.77;63.62;100797.41;6039703;23;20011;-86
2021/05/31 20:16:27;;;;;;;20.70;11.82;;;;;;;14.68;63.71;100778.63;6043308;23;20086;-85
2021/05/31 20:18:52;;;;;;;19.88;10.18;;;;;;;14.54;64.41;100763.38;6021420;23;20058;-86
2021/05/31 20:21:21;;;;;;;22.45;12.85;;;;;;;14.72;64.45;100784.47;6044652;23;20003;-86
2021/05/31 20:23:48;;;;;;;25.98;14.88;;;;;;;14.67;64.49;100782.38;6044308;23;20010;-86
2021/05/31 20:26:13;;;;;;;22.30;13.32;;;;;;;14.72;64.60;100789.91;6043722;23;20003;-84
2021/05/31 20:28:39;;;;;;;19.70;11.00;;;;;;;14.60;64.88;100786.91;6042905;23;20085;-83
2021/05/31 20:31:04;;;;;;;18.95;11.40;;;;;;;14.59;65.33;100795.25;6043992;23;20006;-86
2021/05/31 20:33:29;;;;;;;26.85;12.43;;;;;;;14.62;65.22;100800.25;6020431;23;20318;-85
2021/05/31 20:35:55;;;;;;;28.42;14.50;;;;;;;14.58;65.69;100791.72;6019937;23;20645;-85
2021/05/31 20:38:20;;;;;;;20.35;10.98;;;;;;;14.57;65.83;100798.16;6018895;23;20021;-86
2021/05/31 20:40:46;;;;;;;22.13;12.45;;;;;;;14.51;66.13;100796.22;6019590;23;20086;-86
2021/05/31 20:43:12;;;;;;;20.10;11.00;;;;;;;14.57;66.38;100803.56;6019950;23;20631;-86
2021/05/31 20:45:38;;;;;;;22.02;12.93;;;;;;;14.55;66.33;100792.09;6020344;23;20003;-87